Time;durP1;ratioP1;P1;durP2;ratioP2;P2;SDS_P1;SDS_P2;PMS_P1;PMS_P2;Temp;Humidity;BMP_temperature;BMP_pressure;BME280_temperature;BME280_humidity;BME280_pressure;Samples;Min_cycle;Max_cycle;Signal;HPM_P1;HPM_P2
2021/08/08 00:00:43;;;;;;;2.72;2.08;;;589.70;1408.00;;;;;;4861586;29;20094;-66
2021/08/08 00:03:09;;;;;;;4.05;2.30;;;589.60;1408.00;;;;;;4861408;29;20385;-67
2021/08/08 00:05:35;;;;;;;5.38;2.45;;;589.60;1408.00;;;;;;4861561;29;20053;-68
2021/08/08 00:08:00;;;;;;;2.53;2.20;;;589.60;1433.60;;;;;;4861546;29;20029;-64
2021/08/08 00:10:26;;;;;;;3.97;2.13;;;589.60;1433.60;;;;;;4861378;29;20025;-67
2021/08/08 00:12:52;;;;;;;3.17;2.10;;;589.50;1433.60;;;;;;4861439;29;20112;-64
2021/08/08 00:15:18;;;;;;;4.50;1.90;;;589.50;1433.60;;;;;;4861329;29;20036;-67
2021/08/08 00:17:44;;;;;;;4.80;2.38;;;589.50;1433.60;;;;;;4861815;29;20382;-68
2021/08/08 00:20:11;;;;;;;4.15;2.13;;;589.50;1433.60;;;;;;4861772;29;20037;-63
2021/08/08 00:22:37;;;;;;;2.28;1.80;;;589.50;1433.60;;;;;;4861438;29;20041;-65
2021/08/08 00:25:05;;;;;;;2.95;1.75;;;589.50;1433.60;;;;;;4861188;29;20464;-64
2021/08/08 00:27:31;;;;;;;2.63;2.03;;;589.40;1433.60;;;;;;4861615;29;20089;-64
2021/08/08 00:29:56;;;;;;;3.55;2.13;;;589.40;1433.60;;;;;;4861322;29;20041;-64
2021/08/08 00:32:23;;;;;;;2.67;1.80;;;589.40;1433.60;;;;;;4861370;29;20492;-67
2021/08/08 00:34:49;;;;;;;3.55;1.90;;;589.40;1433.60;;;;;;4861134;29;20048;-67
2021/08/08 00:37:15;;;;;;;3.28;2.08;;;589.40;1433.60;;;;;;4861216;29;20097;-67
2021/08/08 00:39:40;;;;;;;2.38;1.60;;;589.40;1459.20;;;;;;4861028;29;20109;-67
2021/08/08 00:42:06;;;;;;;4.38;2.05;;;589.40;1459.20;;;;;;4861108;29;20037;-66
2021/08/08 00:44:32;;;;;;;2.83;1.80;;;589.40;1459.20;;;;;;4861132;29;20036;-67
2021/08/08 00:46:58;;;;;;;2.65;2.17;;;589.30;1459.20;;;;;;4860965;29;20114;-64
2021/08/08 00:49:26;;;;;;;3.85;2.13;;;589.30;1459.20;;;;;;4861207;29;20053;-63
2021/08/08 00:51:51;;;;;;;8.57;2.35;;;589.40;1459.20;;;;;;4861070;29;20030;-67
2021/08/08 00:54:17;;;;;;;2.45;1.90;;;589.30;1459.20;;;;;;4862297;29;20038;-68
2021/08/08 00:56:43;;;;;;;4.05;2.00;;;589.30;1484.80;;;;;;4864623;29;20045;-67
2021/08/08 00:59:09;;;;;;;2.45;1.65;;;589.30;1484.80;;;;;;4864817;29;20029;-64
2021/08/08 01:01:42;;;;;;;3.53;1.67;;;589.20;1484.80;;;;;;4864867;29;20460;-67
2021/08/08 01:04:12;;;;;;;2.67;1.85;;;589.20;1484.80;;;;;;4864606;29;20045;-64
2021/08/08 01:06:59;;;;;;;2.05;1.60;;;589.20;1484.80;;;;;;4864557;29;20052;-67
2021/08/08 01:09:27;;;;;;;4.35;1.92;;;589.20;1484.80;;;;;;4864303;29;20035;-67
2021/08/08 01:11:53;;;;;;;3.42;2.05;;;589.20;1484.80;;;;;;4864341;29;20025;-63
2021/08/08 01:14:21;;;;;;;5.28;1.95;;;589.20;1484.80;;;;;;4864867;29;20022;-64
2021/08/08 01:16:48;;;;;;;2.83;1.95;;;589.10;1484.80;;;;;;4864145;29;20037;-68
2021/08/08 01:19:17;;;;;;;2.67;1.80;;;589.10;1510.40;;;;;;4864365;29;20026;-64
2021/08/08 01:21:46;;;;;;;3.20;2.10;;;589.10;1510.40;;;;;;4864465;29;20036;-67
2021/08/08 01:24:12;;;;;;;2.53;2.05;;;589.10;1510.40;;;;;;4864167;29;20034;-67
2021/08/08 01:26:40;;;;;;;3.65;1.92;;;589.10;1510.40;;;;;;4864074;29;20471;-69
2021/08/08 01:29:07;;;;;;;2.50;1.70;;;589.10;1484.80;;;;;;4864104;29;20037;-64
2021/08/08 01:31:33;;;;;;;8.02;2.00;;;589.10;1484.80;;;;;;4864148;29;20375;-65
2021/08/08 01:33:59;;;;;;;4.18;2.40;;;589.10;1510.40;;;;;;4863988;29;20034;-68
2021/08/08 01:36:25;;;;;;;3.67;2.22;;;589.10;1510.40;;;;;;4864563;29;20124;-68
2021/08/08 01:39:08;;;;;;;4.45;2.20;;;589.10;1510.40;;;;;;4864098;29;20055;-64
2021/08/08 01:41:44;;;;;;;2.15;1.70;;;589.10;1510.40;;;;;;4864042;29;20057;-68
2021/08/08 01:44:11;;;;;;;2.45;2.20;;;589.10;1510.40;;;;;;4863981;29;20025;-67
2021/08/08 01:46:39;;;;;;;4.57;2.38;;;589.10;1510.40;;;;;;4863539;29;20504;-67
2021/08/08 01:49:06;;;;;;;3.05;2.17;;;589.10;1510.40;;;;;;4863880;29;20048;-64
2021/08/08 01:51:32;;;;;;;2.63;1.88;;;589.10;1510.40;;;;;;4864038;29;20429;-64
2021/08/08 01:53:58;;;;;;;5.70;2.63;;;589.10;1510.40;;;;;;4863711;29;20431;-65
2021/08/08 01:56:24;;;;;;;5.28;2.30;;;589.10;1510.40;;;;;;4863654;29;20045;-67
2021/08/08 01:58:50;;;;;;;2.95;2.00;;;589.10;1510.40;;;;;;4864029;29;20052;-68
2021/08/08 02:01:15;;;;;;;5.72;2.28;;;589.10;1510.40;;;;;;4863583;29;20040;-65
2021/08/08 02:03:41;;;;;;;4.63;2.03;;;589.10;1510.40;;;;;;4863577;29;20074;-68
2021/08/08 02:06:08;;;;;;;5.45;2.55;;;589.10;1510.40;;;;;;4862631;29;20025;-68
2021/08/08 02:08:35;;;;;;;3.78;2.90;;;589.10;1510.40;;;;;;4863589;29;20049;-63
2021/08/08 02:11:01;;;;;;;5.38;3.10;;;589.10;1510.40;;;;;;4863286;29;20085;-68
2021/08/08 02:13:27;;;;;;;5.78;3.40;;;589.10;1510.40;;;;;;4863307;29;20385;-66
2021/08/08 02:15:53;;;;;;;8.30;3.80;;;589.00;1510.40;;;;;;4863250;29;20042;-67
2021/08/08 02:18:19;;;;;;;6.90;4.25;;;589.10;1510.40;;;;;;4863219;29;20105;-67
2021/08/08 02:20:46;;;;;;;10.15;5.95;;;589.00;1510.40;;;;;;4863390;29;20059;-64
2021/08/08 02:23:12;;;;;;;16.83;6.65;;;589.00;1510.40;;;;;;4863433;29;20030;-65
2021/08/08 02:25:38;;;;;;;11.85;6.13;;;589.00;1536.00;;;;;;4862902;29;20436;-64
2021/08/08 02:28:08;;;;;;;11.40;6.13;;;588.90;1536.00;;;;;;4863281;29;20052;-64
2021/08/08 02:30:35;;;;;;;10.32;6.30;;;588.90;1536.00;;;;;;4863271;29;20079;-68
2021/08/08 02:33:01;;;;;;;17.00;6.65;;;588.90;1536.00;;;;;;4863025;29;20054;-70
2021/08/08 02:35:27;;;;;;;22.92;6.57;;;588.80;1536.00;;;;;;4862876;29;20389;-70
2021/08/08 02:37:53;;;;;;;15.45;6.57;;;588.80;1561.60;;;;;;4862906;29;20037;-69
2021/08/08 02:40:18;;;;;;;13.70;6.53;;;588.80;1536.00;;;;;;4867977;29;20034;-69
2021/08/08 02:42:44;;;;;;;9.07;6.72;;;588.80;1561.60;;;;;;4862693;29;20041;-70
2021/08/08 02:45:10;;;;;;;11.38;6.63;;;588.80;1561.60;;;;;;4862610;29;20047;-70
2021/08/08 02:47:36;;;;;;;14.73;7.63;;;588.80;1561.60;;;;;;4862649;29;20022;-70
2021/08/08 02:50:05;;;;;;;13.35;8.23;;;588.80;1561.60;;;;;;4862749;29;20078;-70
2021/08/08 02:52:31;;;;;;;13.60;7.18;;;588.80;1561.60;;;;;;4862703;29;20026;-67
2021/08/08 02:54:56;;;;;;;15.43;8.43;;;588.80;1561.60;;;;;;4862539;29;20040;-66
2021/08/08 02:57:22;;;;;;;11.48;7.05;;;588.80;1561.60;;;;;;4862334;29;20037;-70
2021/08/08 02:59:48;;;;;;;12.77;7.60;;;588.80;1587.20;;;;;;4862589;29;20093;-70
2021/08/08 03:02:13;;;;;;;13.30;7.75;;;588.80;1587.20;;;;;;4862056;29;20078;-69
2021/08/08 03:04:39;;;;;;;16.20;7.90;;;588.80;1587.20;;;;;;4862318;29;20085;-71
2021/08/08 03:07:05;;;;;;;57.92;41.97;;;588.80;1587.20;;;;;;4862464;29;20477;-68
2021/08/08 03:09:34;;;;;;;28.70;12.00;;;588.90;1689.60;;;;;;4862238;29;20033;-67
2021/08/08 03:11:59;;;;;;;24.40;10.60;;;589.00;1587.20;;;;;;4862367;29;20031;-72
2021/08/08 03:14:25;;;;;;;27.95;9.15;;;588.90;1587.20;;;;;;4859660;29;20037;-67
2021/08/08 03:16:51;;;;;;;22.23;8.95;;;588.90;1587.20;;;;;;4847836;29;20046;-72
2021/08/08 03:19:16;;;;;;;21.13;9.18;;;588.90;1587.20;;;;;;4842585;29;20026;-71
2021/08/08 03:21:43;;;;;;;16.15;8.95;;;588.80;1587.20;;;;;;4842986;29;20034;-67
2021/08/08 03:24:09;;;;;;;22.52;9.00;;;588.80;1587.20;;;;;;4842839;29;20033;-72
2021/08/08 03:26:35;;;;;;;18.83;8.98;;;588.80;1587.20;;;;;;4842459;29;20033;-71
2021/08/08 03:29:02;;;;;;;16.58;9.32;;;588.80;1587.20;;;;;;4842749;29;20078;-73
2021/08/08 03:31:27;;;;;;;16.48;8.50;;;588.80;1587.20;;;;;;4841827;29;20030;-71
2021/08/08 03:33:54;;;;;;;16.33;8.57;;;564.10;1587.20;;;;;;4842389;29;20036;-68
2021/08/08 03:36:21;;;;;;;17.25;8.90;;;564.10;1587.20;;;;;;4842524;29;20034;-69
2021/08/08 03:38:48;;;;;;;20.08;10.05;;;564.10;1587.20;;;;;;4842422;29;20033;-71
2021/08/08 03:41:13;;;;;;;17.55;9.75;;;564.10;1612.80;;;;;;4842825;29;20026;-71
2021/08/08 03:43:39;;;;;;;17.85;9.70;;;564.00;1612.80;;;;;;4842634;29;20052;-72
2021/08/08 03:46:05;;;;;;;15.60;9.75;;;564.10;1612.80;;;;;;4841964;29;20572;-72
2021/08/08 03:48:31;;;;;;;18.95;9.32;;;564.00;1612.80;;;;;;4842443;29;20385;-68
2021/08/08 03:50:56;;;;;;;17.25;9.25;;;564.00;1612.80;;;;;;4842256;29;20057;-66
2021/08/08 03:53:22;;;;;;;16.65;8.70;;;564.00;1612.80;;;;;;4842175;29;20488;-72
2021/08/08 03:55:48;;;;;;;17.40;8.27;;;564.00;1612.80;;;;;;4842189;29;20242;-71
2021/08/08 03:58:13;;;;;;;17.88;8.05;;;564.00;1612.80;;;;;;4842164;29;20046;-68
2021/08/08 04:00:39;;;;;;;15.60;7.10;;;564.00;1612.80;;;;;;4841806;29;20034;-73
2021/08/08 04:03:06;;;;;;;13.15;7.20;;;564.00;1612.80;;;;;;4843104;29;20030;-72
2021/08/08 04:05:31;;;;;;;11.65;6.10;;;564.00;1612.80;;;;;;4843267;29;20038;-72
2021/08/08 04:07:57;;;;;;;18.27;7.13;;;564.00;1612.80;;;;;;4842931;29;20469;-73
2021/08/08 04:10:23;;;;;;;14.05;6.68;;;564.00;1638.40;;;;;;4843012;29;20083;-67
2021/08/08 04:12:48;;;;;;;14.93;7.18;;;564.00;1638.40;;;;;;4843040;29;20033;-73
2021/08/08 04:15:14;;;;;;;12.90;6.65;;;564.00;1638.40;;;;;;4841505;29;20073;-67
2021/08/08 04:17:40;;;;;;;14.13;6.03;;;564.00;1638.40;;;;;;4842918;29;20128;-73
2021/08/08 04:20:06;;;;;;;10.45;6.03;;;564.00;1638.40;;;;;;4842841;29;20056;-72
2021/08/08 04:22:32;;;;;;;12.93;5.55;;;564.00;1612.80;;;;;;4842935;29;20034;-73
2021/08/08 04:24:57;;;;;;;7.90;4.80;;;564.10;1638.40;;;;;;4843163;29;20450;-72
2021/08/08 04:27:23;;;;;;;11.70;4.90;;;564.00;1638.40;;;;;;4842813;29;20029;-70
2021/08/08 04:29:49;;;;;;;10.15;5.40;;;564.10;1638.40;;;;;;4846039;29;20090;-72
2021/08/08 04:32:15;;;;;;;11.32;4.68;;;564.10;1638.40;;;;;;4846763;29;20037;-67
2021/08/08 04:34:40;;;;;;;9.63;5.43;;;564.10;1612.80;;;;;;4846458;29;20025;-73
2021/08/08 04:37:06;;;;;;;13.45;5.35;;;564.10;1612.80;;;;;;4846649;29;20452;-67
2021/08/08 04:39:32;;;;;;;10.60;5.22;;;564.10;1612.80;;;;;;4846547;29;20033;-67
2021/08/08 04:41:58;;;;;;;7.78;4.55;;;588.80;1612.80;;;;;;4846610;29;20029;-73
2021/08/08 04:44:23;;;;;;;8.80;4.80;;;588.80;1638.40;;;;;;4845970;29;20022;-67
2021/08/08 04:46:49;;;;;;;8.77;5.10;;;588.80;1638.40;;;;;;4846288;29;20106;-72
2021/08/08 04:49:15;;;;;;;10.68;4.90;;;588.80;1638.40;;;;;;4846427;29;20037;-71
2021/08/08 04:51:41;;;;;;;10.45;4.63;;;588.80;1612.80;;;;;;4846193;29;20034;-71
2021/08/08 04:54:08;;;;;;;8.52;5.57;;;588.90;1638.40;;;;;;4846223;29;20057;-71
2021/08/08 04:56:34;;;;;;;10.30;5.15;;;588.90;1612.80;;;;;;4846065;29;20117;-66
2021/08/08 04:59:00;;;;;;;9.07;4.95;;;588.90;1638.40;;;;;;4846059;29;20033;-66
2021/08/08 05:01:26;;;;;;;14.13;4.57;;;589.00;1638.40;;;;;;4846066;29;20384;-67
2021/08/08 05:03:51;;;;;;;8.88;5.07;;;589.00;1638.40;;;;;;4846147;29;20054;-67
2021/08/08 05:06:17;;;;;;;9.50;4.95;;;589.00;1638.40;;;;;;4845990;29;20037;-68
2021/08/08 05:08:43;;;;;;;7.13;4.95;;;589.10;1638.40;;;;;;4846470;29;20038;-73
2021/08/08 05:11:08;;;;;;;9.73;4.55;;;589.10;1612.80;;;;;;4845974;29;20038;-70
2021/08/08 05:13:34;;;;;;;9.45;4.75;;;589.10;1638.40;;;;;;4846096;29;20026;-67
2021/08/08 05:16:00;;;;;;;11.05;4.93;;;589.10;1638.40;;;;;;4845959;29;20384;-72
2021/08/08 05:18:26;;;;;;;9.93;4.90;;;589.20;1638.40;;;;;;4846180;29;20492;-67
2021/08/08 05:20:51;;;;;;;10.20;5.00;;;589.20;1612.80;;;;;;4846476;29;20034;-74
2021/08/08 05:23:17;;;;;;;22.40;6.15;;;589.20;1612.80;;;;;;4845654;29;20037;-67
2021/08/08 05:25:43;;;;;;;17.40;5.63;;;589.20;1638.40;;;;;;4845752;29;20113;-66
2021/08/08 05:28:09;;;;;;;20.77;6.18;;;589.30;1638.40;;;;;;4845873;29;20029;-77
2021/08/08 05:30:34;;;;;;;28.33;5.90;;;589.40;1664.00;;;;;;4845790;29;20034;-75
2021/08/08 05:33:00;;;;;;;35.08;6.50;;;589.40;1689.60;;;;;;4845742;29;20540;-72
2021/08/08 05:35:26;;;;;;;38.72;7.70;;;589.50;1715.20;;;;;;4845333;29;20037;-66
2021/08/08 05:37:51;;;;;;;28.27;6.95;;;589.50;1740.80;;;;;;4845669;29;20058;-66
2021/08/08 05:40:17;;;;;;;20.75;5.47;;;589.50;1740.80;;;;;;4845485;29;20422;-72
2021/08/08 05:42:50;;;;;;;18.17;5.72;;;589.60;1740.80;;;;;;4845385;29;20062;-67
2021/08/08 05:45:19;;;;;;;14.07;6.10;;;589.60;1740.80;;;;;;4845238;29;20057;-66
2021/08/08 05:47:45;;;;;;;10.02;5.70;;;589.60;1766.40;;;;;;4845544;29;20033;-67
2021/08/08 05:50:11;;;;;;;12.95;5.57;;;589.60;1740.80;;;;;;4845062;29;20034;-69
2021/08/08 05:52:37;;;;;;;12.07;5.75;;;589.70;1715.20;;;;;;4845135;29;20087;-68
2021/08/08 05:55:03;;;;;;;9.68;5.65;;;589.70;1689.60;;;;;;4845285;29;20033;-64
2021/08/08 05:57:29;;;;;;;14.48;5.22;;;589.70;1715.20;;;;;;4849755;29;20048;-68
2021/08/08 05:59:55;;;;;;;11.13;5.70;;;614.40;1715.20;;;;;;4854826;29;20041;-69
2021/08/08 06:02:20;;;;;;;11.00;5.55;;;589.70;1689.60;;;;;;4855424;29;20026;-70
2021/08/08 06:04:49;;;;;;;9.70;5.25;;;614.40;1689.60;;;;;;4863505;29;20044;-70
2021/08/08 06:07:16;;;;;;;9.43;5.90;;;614.40;1664.00;;;;;;4863403;29;20048;-69
2021/08/08 06:09:42;;;;;;;9.50;5.53;;;614.50;1664.00;;;;;;4863193;29;20484;-68
2021/08/08 06:12:08;;;;;;;10.93;5.65;;;614.50;1638.40;;;;;;4863283;29;20063;-69
2021/08/08 06:14:34;;;;;;;12.45;5.40;;;614.60;1664.00;;;;;;4863298;29;20075;-64
2021/08/08 06:17:00;;;;;;;10.95;5.35;;;614.70;1638.40;;;;;;4863252;29;20097;-69
2021/08/08 06:19:25;;;;;;;10.88;5.43;;;614.70;1638.40;;;;;;4863084;29;20108;-69
2021/08/08 06:21:51;;;;;;;10.52;5.97;;;614.80;1612.80;;;;;;4862988;29;20029;-69
2021/08/08 06:24:17;;;;;;;14.45;6.30;;;614.90;1612.80;;;;;;4861567;29;20037;-65
2021/08/08 06:26:43;;;;;;;16.33;6.30;;;615.00;1612.80;;;;;;4863021;29;20029;-68
2021/08/08 06:29:09;;;;;;;9.88;5.80;;;615.00;1612.80;;;;;;4862963;29;20029;-66
2021/08/08 06:31:36;;;;;;;12.77;5.40;;;615.10;1587.20;;;;;;4862843;29;20145;-66
2021/08/08 06:34:02;;;;;;;13.38;6.38;;;615.30;1587.20;;;;;;4856341;29;20052;-66
2021/08/08 06:36:28;;;;;;;12.93;6.47;;;640.00;1561.60;;;;;;4851761;29;20048;-68
2021/08/08 06:38:55;;;;;;;12.35;6.30;;;640.20;1587.20;;;;;;4852488;29;20107;-69
2021/08/08 06:41:21;;;;;;;10.45;6.43;;;640.50;1561.60;;;;;;4848287;29;20037;-68
2021/08/08 06:43:47;;;;;;;13.70;5.70;;;640.70;1561.60;;;;;;4852721;29;20109;-65
2021/08/08 06:46:13;;;;;;;10.75;6.28;;;665.60;1561.60;;;;;;4850897;29;20120;-66
2021/08/08 06:48:38;;;;;;;12.90;6.55;;;665.90;1536.00;;;;;;4850954;29;20037;-67
2021/08/08 06:51:04;;;;;;;14.48;6.35;;;666.10;1510.40;;;;;;4852201;29;20440;-66
2021/08/08 06:53:30;;;;;;;9.20;5.40;;;666.40;1484.80;;;;;;4861357;29;20038;-67
2021/08/08 06:55:56;;;;;;;19.98;6.63;;;691.40;1484.80;;;;;;4862341;29;20033;-69
2021/08/08 06:59:17;;;;;;;33.95;6.97;;;691.70;1510.40;;;;;;4862704;29;20040;-71
2021/08/08 07:01:43;;;;;;;46.10;7.32;;;692.00;1484.80;;;;;;4862627;29;20037;-66
2021/08/08 07:04:09;;;;;;;28.83;8.38;;;716.90;1484.80;;;;;;4862377;29;20033;-66
2021/08/08 07:06:35;;;;;;;24.98;6.78;;;717.20;1459.20;;;;;;4862580;29;20033;-68
2021/08/08 07:09:01;;;;;;;27.95;6.20;;;717.50;1433.60;;;;;;4862535;29;20486;-66
2021/08/08 07:11:27;;;;;;;39.05;8.05;;;717.70;1408.00;;;;;;4862222;29;20055;-67
2021/08/08 07:13:53;;;;;;;36.58;8.27;;;742.60;1408.00;;;;;;4862350;29;20034;-67
2021/08/08 07:16:19;;;;;;;23.90;6.45;;;742.70;1382.40;;;;;;4862252;29;20041;-69
2021/08/08 07:18:44;;;;;;;16.80;7.30;;;743.00;1356.80;;;;;;4862443;29;20105;-70
2021/08/08 07:21:11;;;;;;;25.77;6.40;;;743.20;1331.20;;;;;;4862110;29;20556;-70
2021/08/08 07:23:37;;;;;;;23.63;5.95;;;768.00;1356.80;;;;;;4859208;29;20040;-68
2021/08/08 07:26:03;;;;;;;27.33;7.07;;;768.30;1331.20;;;;;;4852738;29;20061;-70
2021/08/08 07:28:29;;;;;;;18.60;6.68;;;768.60;1305.60;;;;;;4855892;29;20034;-65
2021/08/08 07:30:55;;;;;;;18.75;6.32;;;768.70;1254.40;;;;;;4856265;29;20025;-66
2021/08/08 07:33:21;;;;;;;20.70;5.90;;;793.60;1280.00;;;;;;4851327;29;20384;-66
2021/08/08 07:35:48;;;;;;;12.93;5.43;;;793.80;1280.00;;;;;;4851735;29;20090;-70
2021/08/08 07:38:14;;;;;;;11.32;4.65;;;794.10;1254.40;;;;;;4851804;29;20544;-69
2021/08/08 07:40:39;;;;;;;11.15;5.28;;;794.30;1280.00;;;;;;4852780;29;20097;-70
2021/08/08 07:43:05;;;;;;;9.18;4.80;;;819.20;1254.40;;;;;;4853200;29;20030;-67
2021/08/08 07:45:31;;;;;;;8.02;4.50;;;819.40;1228.80;;;;;;4851499;29;20109;-67
2021/08/08 07:47:57;;;;;;;11.73;4.75;;;819.70;1203.20;;;;;;4852902;29;20034;-67
2021/08/08 07:50:23;;;;;;;7.68;4.22;;;819.80;1177.60;;;;;;4851668;29;20041;-67
2021/08/08 07:52:49;;;;;;;7.07;4.05;;;820.00;1177.60;;;;;;4853117;29;20108;-66
2021/08/08 07:55:15;;;;;;;9.95;4.55;;;844.80;1152.00;;;;;;4851200;29;20105;-67
2021/08/08 07:57:40;;;;;;;7.85;3.53;;;845.00;1126.40;;;;;;4850274;29;20046;-66
2021/08/08 08:00:07;;;;;;;8.45;4.38;;;845.10;1075.20;;;;;;4849447;29;20122;-70
2021/08/08 08:02:33;;;;;;;5.90;3.40;;;845.40;1049.60;;;;;;4848302;29;20426;-66
2021/08/08 08:04:59;;;;;;;8.50;4.07;;;845.50;1024.00;;;;;;4843063;29;20036;-66
2021/08/08 08:07:25;;;;;;;8.30;3.88;;;845.70;1024.00;;;;;;4843988;29;20041;-70
2021/08/08 08:09:50;;;;;;;11.40;4.07;;;870.40;1024.00;;;;;;4843369;29;20033;-69
2021/08/08 08:12:16;;;;;;;8.85;4.50;;;870.60;1024.00;;;;;;4843094;29;20049;-67
2021/08/08 08:14:42;;;;;;;10.43;4.00;;;870.70;998.40;;;;;;4843192;29;20037;-69
2021/08/08 08:17:08;;;;;;;12.15;4.03;;;870.80;998.40;;;;;;4843114;29;20045;-69
2021/08/08 08:19:33;;;;;;;6.32;4.05;;;870.90;998.40;;;;;;4843041;29;20040;-69
2021/08/08 08:21:59;;;;;;;8.00;3.90;;;871.10;998.40;;;;;;4843063;29;20026;-66
2021/08/08 08:24:25;;;;;;;8.18;3.92;;;871.20;998.40;;;;;;4843006;29;20476;-70
2021/08/08 08:26:51;;;;;;;5.05;3.88;;;896.00;972.80;;;;;;4842899;29;20037;-67
2021/08/08 08:29:16;;;;;;;9.35;3.30;;;896.00;998.40;;;;;;4843020;29;20030;-70
2021/08/08 08:31:42;;;;;;;6.97;4.03;;;896.30;998.40;;;;;;4842932;29;20035;-66
2021/08/08 08:34:08;;;;;;;5.97;3.67;;;896.50;972.80;;;;;;4843278;29;20034;-70
2021/08/08 08:36:35;;;;;;;6.63;3.72;;;896.60;972.80;;;;;;4842896;29;20070;-70
2021/08/08 08:39:01;;;;;;;5.32;3.65;;;896.80;947.20;;;;;;4843034;29;20461;-69
2021/08/08 08:41:30;;;;;;;6.97;3.83;;;896.90;896.00;;;;;;4842854;29;20030;-67
2021/08/08 08:43:56;;;;;;;9.00;3.30;;;921.60;921.60;;;;;;4842952;29;20370;-66
2021/08/08 08:46:23;;;;;;;9.23;3.83;;;921.70;921.60;;;;;;4842539;29;20049;-70
2021/08/08 08:48:53;;;;;;;8.90;3.70;;;921.90;921.60;;;;;;4842759;29;20026;-69
2021/08/08 08:51:20;;;;;;;8.82;3.85;;;922.00;921.60;;;;;;4842906;29;20030;-70
2021/08/08 08:53:47;;;;;;;6.80;3.90;;;922.10;896.00;;;;;;4842906;29;20041;-66
2021/08/08 08:56:14;;;;;;;7.20;3.40;;;922.30;896.00;;;;;;4842632;29;20037;-66
2021/08/08 08:58:40;;;;;;;6.40;3.30;;;922.30;896.00;;;;;;4842614;29;20053;-69
2021/08/08 09:01:06;;;;;;;5.78;3.53;;;922.50;870.40;;;;;;4842686;29;20090;-66
2021/08/08 09:03:32;;;;;;;6.75;4.35;;;922.50;896.00;;;;;;4842749;29;20042;-70
2021/08/08 09:05:58;;;;;;;8.40;4.28;;;947.20;896.00;;;;;;4842791;29;20030;-66
2021/08/08 09:08:23;;;;;;;9.57;4.00;;;947.50;870.40;;;;;;4842477;29;20088;-70
2021/08/08 09:11:03;;;;;;;9.00;4.10;;;947.50;870.40;;;;;;4842611;29;20041;-66
2021/08/08 09:13:29;;;;;;;7.72;4.20;;;947.50;870.40;;;;;;4842461;29;20030;-69
2021/08/08 09:15:54;;;;;;;8.88;3.80;;;947.50;896.00;;;;;;4845819;29;20117;-66
2021/08/08 09:18:22;;;;;;;8.40;4.22;;;947.60;844.80;;;;;;4845812;29;20045;-69
2021/08/08 09:20:49;;;;;;;6.40;3.78;;;947.90;819.20;;;;;;4845803;29;20034;-66
2021/08/08 09:23:16;;;;;;;8.75;3.38;;;947.90;819.20;;;;;;4845943;29;20079;-69
2021/08/08 09:25:53;;;;;;;5.78;3.72;;;972.80;844.80;;;;;;4845900;29;20030;-70
2021/08/08 09:28:27;;;;;;;5.32;4.05;;;972.80;870.40;;;;;;4845821;29;20076;-69
2021/08/08 09:30:53;;;;;;;9.45;3.70;;;972.80;844.80;;;;;;4845850;29;20506;-70
2021/08/08 09:33:19;;;;;;;7.65;3.92;;;973.00;819.20;;;;;;4845850;29;20105;-69
2021/08/08 09:35:44;;;;;;;5.40;3.47;;;973.10;819.20;;;;;;4845427;29;20026;-67
2021/08/08 09:38:12;;;;;;;7.30;3.70;;;973.20;819.20;;;;;;4845587;29;20045;-68
2021/08/08 09:40:41;;;;;;;6.63;3.72;;;973.30;844.80;;;;;;4845600;29;20037;-70
2021/08/08 09:43:09;;;;;;;10.07;3.83;;;973.40;819.20;;;;;;4845666;29;20034;-66
2021/08/08 09:45:42;;;;;;;6.82;3.90;;;973.60;819.20;;;;;;4845218;29;20046;-69
2021/08/08 09:48:13;;;;;;;8.07;3.92;;;973.70;793.60;;;;;;4845435;29;20042;-66
2021/08/08 09:50:44;;;;;;;7.00;3.72;;;973.70;793.60;;;;;;4845191;29;20529;-66
2021/08/08 09:53:20;;;;;;;8.75;4.07;;;998.40;819.20;;;;;;4845304;29;20033;-69
2021/08/08 09:55:46;;;;;;;5.18;3.50;;;998.40;819.20;;;;;;4845316;29;20432;-69
2021/08/08 09:58:22;;;;;;;6.97;4.07;;;998.50;844.80;;;;;;4845390;29;20029;-66
2021/08/08 10:00:49;;;;;;;7.85;3.85;;;998.70;819.20;;;;;;4844950;29;20105;-69
2021/08/08 10:03:15;;;;;;;5.93;3.42;;;998.80;819.20;;;;;;4845299;29;20030;-66
2021/08/08 10:05:43;;;;;;;6.10;3.35;;;998.80;819.20;;;;;;4845229;29;20091;-70
2021/08/08 10:08:10;;;;;;;5.53;3.75;;;998.90;819.20;;;;;;4845056;29;20041;-66
2021/08/08 10:10:37;;;;;;;6.75;2.97;;;998.90;819.20;;;;;;4845015;29;20030;-69
2021/08/08 10:13:09;;;;;;;8.18;3.35;;;999.00;793.60;;;;;;4844747;29;20110;-66
2021/08/08 10:15:39;;;;;;;5.05;3.30;;;998.90;793.60;;;;;;4845135;29;20034;-67
2021/08/08 10:18:06;;;;;;;6.57;3.42;;;998.90;793.60;;;;;;4845517;29;20112;-66
2021/08/08 10:20:34;;;;;;;6.95;3.78;;;999.00;793.60;;;;;;4844986;29;20057;-70
2021/08/08 10:23:02;;;;;;;4.88;3.38;;;999.10;768.00;;;;;;4844968;29;20037;-67
2021/08/08 10:25:28;;;;;;;6.20;3.17;;;999.30;768.00;;;;;;4844091;29;20368;-70
2021/08/08 10:27:54;;;;;;;7.13;3.15;;;999.30;768.00;;;;;;4844592;29;20033;-66
2021/08/08 10:30:20;;;;;;;3.47;2.40;;;999.30;742.40;;;;;;4844525;29;20370;-66
2021/08/08 10:32:46;;;;;;;4.97;2.63;;;999.30;716.80;;;;;;4844822;29;20033;-68
2021/08/08 10:35:15;;;;;;;5.20;2.70;;;999.30;716.80;;;;;;4844491;29;20041;-66
2021/08/08 10:37:41;;;;;;;5.55;2.80;;;1024.00;716.80;;;;;;4844671;29;20044;-66
2021/08/08 10:40:09;;;;;;;4.40;2.47;;;1024.00;742.40;;;;;;4844896;29;20364;-69
2021/08/08 10:42:45;;;;;;;4.82;2.80;;;1024.00;716.80;;;;;;4844435;29;20030;-66
2021/08/08 10:45:40;;;;;;;6.47;3.65;;;1024.10;742.40;;;;;;4844385;29;20054;-70
2021/08/08 10:48:09;;;;;;;29.42;4.38;;;1024.10;768.00;;;;;;4769897;30;20043;-65
2021/08/08 10:50:40;;;;;;;16.33;4.22;;;1024.10;768.00;;;;;;4770431;30;20118;-68
2021/08/08 10:53:20;;;;;;;10.82;4.00;;;1024.10;768.00;;;;;;4770116;30;20047;-69
2021/08/08 10:55:48;;;;;;;10.45;4.03;;;1024.10;793.60;;;;;;4769726;30;20051;-67
2021/08/08 10:58:15;;;;;;;5.65;3.88;;;1024.20;768.00;;;;;;4770004;30;20070;-66
2021/08/08 11:00:42;;;;;;;7.82;3.40;;;1024.40;768.00;;;;;;4770018;30;20070;-69
2021/08/08 11:03:27;;;;;;;7.05;3.47;;;1024.40;768.00;;;;;;4769920;30;20036;-65
2021/08/08 11:05:52;;;;;;;9.40;3.65;;;1024.50;768.00;;;;;;4770019;30;20043;-69
2021/08/08 11:08:22;;;;;;;5.97;3.80;;;1024.50;768.00;;;;;;4769740;30;20085;-65
2021/08/08 11:10:48;;;;;;;6.03;3.75;;;1024.70;768.00;;;;;;4769695;30;20044;-69
2021/08/08 11:13:20;;;;;;;13.07;4.03;;;1024.60;742.40;;;;;;4769813;30;20490;-65
2021/08/08 11:15:46;;;;;;;10.50;4.53;;;1024.60;742.40;;;;;;4769326;30;20039;-65
2021/08/08 11:18:13;;;;;;;7.55;4.15;;;1024.60;742.40;;;;;;4785167;29;20042;-67
2021/08/08 11:20:39;;;;;;;9.30;4.53;;;1024.50;742.40;;;;;;4781807;30;20027;-65
2021/08/08 11:23:05;;;;;;;15.20;4.32;;;1024.60;716.80;;;;;;4787513;30;20091;-66
2021/08/08 11:25:42;;;;;;;6.25;3.83;;;1024.70;716.80;;;;;;4857356;29;20125;-68
2021/08/08 11:28:10;;;;;;;12.70;4.03;;;1024.60;716.80;;;;;;4861989;29;20030;-70
2021/08/08 11:30:45;;;;;;;66.13;14.73;;;1024.70;716.80;;;;;;4860132;29;20032;-67
2021/08/08 11:33:13;;;;;;;58.35;13.70;;;1024.70;716.80;;;;;;4861386;29;20108;-67
2021/08/08 11:35:41;;;;;;;25.90;7.55;;;1024.70;716.80;;;;;;4861141;29;20030;-67
2021/08/08 11:38:20;;;;;;;11.10;4.93;;;1024.70;716.80;;;;;;4852743;29;20038;-67
2021/08/08 11:40:47;;;;;;;6.15;3.95;;;1024.80;716.80;;;;;;4851949;29;20036;-67
2021/08/08 11:43:14;;;;;;;7.13;3.63;;;1024.80;716.80;;;;;;4851700;29;20484;-69
2021/08/08 11:45:46;;;;;;;8.07;3.85;;;1024.80;691.20;;;;;;4853046;29;20453;-67
2021/08/08 11:48:26;;;;;;;4.50;3.40;;;1024.80;691.20;;;;;;4853618;29;20040;-68
2021/08/08 11:51:03;;;;;;;5.30;3.28;;;1024.80;691.20;;;;;;4845310;29;20036;-68
2021/08/08 11:53:37;;;;;;;6.78;3.22;;;1024.80;691.20;;;;;;4851114;29;20563;-67
2021/08/08 11:56:18;;;;;;;10.32;3.50;;;1024.80;691.20;;;;;;4861021;29;20048;-68
2021/08/08 11:58:50;;;;;;;7.15;3.50;;;1024.80;691.20;;;;;;4855185;29;20033;-68
2021/08/08 12:01:20;;;;;;;9.10;3.70;;;1049.60;716.80;;;;;;4861790;29;20390;-65
2021/08/08 12:03:47;;;;;;;6.22;3.38;;;1049.70;716.80;;;;;;4861802;29;20029;-67
2021/08/08 12:06:17;;;;;;;4.88;3.05;;;1049.70;716.80;;;;;;4861242;29;20030;-65
2021/08/08 12:08:43;;;;;;;6.28;3.30;;;1049.70;691.20;;;;;;4852719;29;20036;-65
2021/08/08 12:11:10;;;;;;;5.45;3.00;;;1049.70;691.20;;;;;;4852655;29;20033;-65
2021/08/08 12:13:37;;;;;;;7.88;2.60;;;1049.70;691.20;;;;;;4851830;29;20018;-69
2021/08/08 12:16:15;;;;;;;5.05;2.80;;;1049.70;716.80;;;;;;4848256;29;20038;-65